Time;durP1;ratioP1;P1;durP2;ratioP2;P2;SDS_P1;SDS_P2;PMS_P1;PMS_P2;Temp;Humidity;BMP_temperature;BMP_pressure;BME280_temperature;BME280_humidity;BME280_pressure;Samples;Min_cycle;Max_cycle;Signal;HPM_P1;HPM_P2
2022/07/30 00:13:41;;;;;;;4.95;4.53;;;36.70;99.90;;;;;;5049719;28;20231;-95
2022/07/30 00:16:16;;;;;;;4.95;4.55;;;36.70;99.90;;;;;;5052272;28;20205;-95
2022/07/30 00:18:55;;;;;;;5.25;4.55;;;36.70;99.90;;;;;;5042409;28;20204;-95
2022/07/30 00:21:27;;;;;;;5.70;4.82;;;36.50;99.90;;;;;;5049745;28;20227;-95
2022/07/30 00:24:10;;;;;;;5.10;4.60;;;36.70;99.90;;;;;;5048135;28;20201;-96
2022/07/30 00:26:42;;;;;;;5.65;4.75;;;36.70;99.90;;;;;;5049233;28;20239;-95
2022/07/30 00:29:18;;;;;;;5.75;4.78;;;36.50;99.90;;;;;;5045030;28;20223;-96
2022/07/30 00:32:05;;;;;;;6.18;5.03;;;36.50;99.90;;;;;;5047265;28;20200;-95
2022/07/30 00:34:37;;;;;;;5.35;4.78;;;36.30;99.90;;;;;;5047643;28;20243;-95
2022/07/30 00:37:09;;;;;;;6.70;4.70;;;36.40;99.90;;;;;;5050367;28;20209;-95
2022/07/30 00:39:42;;;;;;;6.63;4.80;;;35.90;99.90;;;;;;5048128;28;20204;-95
2022/07/30 00:42:14;;;;;;;5.43;5.00;;;35.80;99.90;;;;;;5050554;28;20213;-95
2022/07/30 00:44:49;;;;;;;5.22;4.72;;;35.90;99.90;;;;;;5045309;28;20235;-94
2022/07/30 00:52:56;;;;;;;5.60;5.10;;;35.70;99.90;;;;;;5047997;28;20209;-95
2022/07/30 00:55:29;;;;;;;6.00;4.68;;;35.70;99.90;;;;;;5048032;28;20300;-93
2022/07/30 01:06:08;;;;;;;7.28;4.78;;;35.70;99.90;;;;;;5045726;28;20710;-94
2022/07/30 01:08:51;;;;;;;6.82;4.97;;;35.80;99.90;;;;;;5054016;28;20216;-93
2022/07/30 01:14:10;;;;;;;5.18;4.57;;;35.90;99.90;;;;;;5113925;23;20240;-94
2022/07/30 01:16:45;;;;;;;4.80;4.40;;;36.30;99.90;;;;;;5054893;28;20208;-94
2022/07/30 01:22:20;;;;;;;5.35;4.22;;;36.90;99.90;;;;;;5054861;28;20243;-95
2022/07/30 01:27:54;;;;;;;8.82;4.97;;;37.50;99.90;;;;;;5052987;28;20244;-94
2022/07/30 01:30:30;;;;;;;4.57;4.18;;;36.90;99.90;;;;;;5053891;28;20267;-94
2022/07/30 01:33:05;;;;;;;6.90;4.43;;;37.20;99.90;;;;;;5053695;28;20226;-94
2022/07/30 01:38:39;;;;;;;6.22;4.75;;;37.80;99.10;;;;;;5053492;28;20208;-94
2022/07/30 01:41:25;;;;;;;5.93;4.80;;;37.70;99.00;;;;;;5053538;28;20276;-94
2022/07/30 01:44:12;;;;;;;6.60;4.65;;;37.40;99.40;;;;;;5052460;28;20205;-94
2022/07/30 01:46:56;;;;;;;4.90;4.50;;;37.50;99.50;;;;;;5057151;28;20228;-93
2022/07/30 01:49:33;;;;;;;6.70;4.57;;;37.60;99.20;;;;;;5056194;28;20635;-94
2022/07/30 01:57:51;;;;;;;6.70;4.70;;;37.60;99.00;;;;;;5054308;28;20650;-95
2022/07/30 02:00:25;;;;;;;6.80;4.75;;;37.00;99.00;;;;;;5053795;28;20232;-95
2022/07/30 02:05:41;;;;;;;7.03;4.72;;;36.20;99.60;;;;;;5520297;23;20243;-94
2022/07/30 02:08:31;;;;;;;4.78;4.38;;;36.00;99.80;;;;;;5055156;28;20681;-94
2022/07/30 02:14:10;;;;;;;5.25;3.92;;;34.80;98.90;;;;;;5052371;28;20234;-94
2022/07/30 02:31:57;;;;;;;5.63;5.10;;;32.40;99.90;;;;;;5065306;28;20196;-95
2022/07/30 02:34:40;;;;;;;5.45;4.95;;;32.20;99.90;;;;;;5056143;28;20201;-95
2022/07/30 02:40:26;;;;;;;7.03;5.40;;;31.80;99.90;;;;;;5271938;23;20248;-96
2022/07/30 02:48:56;;;;;;;6.03;5.03;;;31.30;99.90;;;;;;5297573;23;20244;-94
2022/07/30 02:51:30;;;;;;;17.88;9.38;;;31.10;99.90;;;;;;5053478;28;20236;-95
2022/07/30 02:54:05;;;;;;;15.13;7.85;;;31.00;99.90;;;;;;5051413;28;20209;-94
2022/07/30 02:56:38;;;;;;;11.98;8.52;;;30.70;99.90;;;;;;5045936;28;20207;-94
2022/07/30 02:59:11;;;;;;;11.98;8.85;;;30.30;99.90;;;;;;5048990;28;20209;-94
2022/07/30 03:01:46;;;;;;;7.97;6.07;;;30.00;99.90;;;;;;5051341;28;20200;-94
2022/07/30 03:04:29;;;;;;;12.10;8.13;;;29.60;99.90;;;;;;5053285;28;20209;-94
2022/07/30 03:07:10;;;;;;;8.88;7.63;;;29.40;99.90;;;;;;5048938;28;20293;-95
2022/07/30 03:12:38;;;;;;;5.82;5.25;;;29.30;99.90;;;;;;5053616;28;20197;-95
2022/07/30 03:18:02;;;;;;;7.30;5.70;;;29.30;99.90;;;;;;5053199;28;20208;-95
2022/07/30 03:20:49;;;;;;;6.10;5.03;;;29.20;99.90;;;;;;5055316;28;20205;-94
2022/07/30 03:23:31;;;;;;;6.13;5.53;;;29.00;99.90;;;;;;5056878;28;20251;-95
2022/07/30 03:26:13;;;;;;;5.72;5.22;;;28.90;99.90;;;;;;5055043;28;20231;-95
2022/07/30 03:32:06;;;;;;;7.13;5.68;;;28.70;99.90;;;;;;5053284;28;20201;-94
2022/07/30 03:37:49;;;;;;;9.90;6.22;;;28.40;99.90;;;;;;5047872;28;20223;-95
2022/07/30 03:40:30;;;;;;;8.47;6.93;;;28.30;99.90;;;;;;5049063;28;20219;-94
2022/07/30 03:43:07;;;;;;;7.55;6.65;;;28.20;99.90;;;;;;5051226;28;20247;-94
2022/07/30 03:54:25;;;;;;;8.47;6.37;;;27.80;99.90;;;;;;5050573;28;20213;-94
2022/07/30 03:59:53;;;;;;;7.97;6.93;;;27.60;99.90;;;;;;5051579;28;20255;-94
2022/07/30 04:08:37;;;;;;;10.27;6.90;;;27.20;99.90;;;;;;5048021;28;20312;-93
2022/07/30 04:14:45;;;;;;;8.10;6.73;;;26.90;99.90;;;;;;5051150;28;20215;-94
2022/07/30 04:17:23;;;;;;;9.20;6.57;;;26.80;99.90;;;;;;5050877;28;20212;-94
2022/07/30 04:22:38;;;;;;;10.80;6.23;;;26.60;99.90;;;;;;5066272;23;20244;-95
2022/07/30 04:25:20;;;;;;;7.47;5.80;;;26.50;99.90;;;;;;5051437;28;20259;-95
2022/07/30 04:27:57;;;;;;;7.63;6.20;;;26.50;99.90;;;;;;5051381;28;20280;-95
2022/07/30 04:30:39;;;;;;;7.47;6.47;;;26.40;99.90;;;;;;5048531;28;20227;-95
2022/07/30 04:33:11;;;;;;;7.33;6.13;;;26.40;99.90;;;;;;5049464;28;20236;-95
2022/07/30 04:35:44;;;;;;;7.83;6.03;;;26.40;99.90;;;;;;5052875;28;20201;-95
2022/07/30 04:41:09;;;;;;;7.90;6.10;;;26.40;99.90;;;;;;5052702;28;20258;-95
2022/07/30 04:43:43;;;;;;;10.90;6.37;;;26.30;99.90;;;;;;5053284;28;20231;-94
2022/07/30 04:56:53;;;;;;;9.53;6.00;;;26.00;99.90;;;;;;5055461;28;20215;-96
2022/07/30 04:59:26;;;;;;;8.20;6.17;;;26.00;99.90;;;;;;5044787;28;20232;-95
2022/07/30 05:01:59;;;;;;;7.07;6.10;;;25.90;99.90;;;;;;5044884;28;20209;-96
2022/07/30 05:04:35;;;;;;;8.30;6.10;;;25.80;99.90;;;;;;5047023;28;20235;-95
2022/07/30 05:07:08;;;;;;;8.20;6.17;;;25.70;99.90;;;;;;5048518;28;20227;-95
2022/07/30 05:12:47;;;;;;;6.60;5.83;;;25.60;99.90;;;;;;5059178;28;20232;-93
2022/07/30 05:15:24;;;;;;;7.67;6.50;;;25.60;99.90;;;;;;5207823;23;20271;-96
2022/07/30 05:18:28;;;;;;;7.73;6.23;;;25.50;99.90;;;;;;5046544;28;20287;-95
2022/07/30 05:21:02;;;;;;;6.67;5.63;;;25.40;99.90;;;;;;5047049;28;20231;-94
2022/07/30 05:26:33;;;;;;;8.33;6.00;;;25.30;99.90;;;;;;5044645;28;20732;-94
2022/07/30 05:32:52;;;;;;;6.77;5.73;;;25.30;99.90;;;;;;5051125;28;20292;-94
2022/07/30 05:38:13;;;;;;;6.13;5.53;;;25.20;99.90;;;;;;4930159;29;20270;-95
2022/07/30 05:40:49;;;;;;;7.63;6.07;;;25.20;99.90;;;;;;4954601;29;20201;-95
2022/07/30 05:43:21;;;;;;;10.17;6.27;;;25.10;99.90;;;;;;4957868;29;20292;-94
2022/07/30 05:45:52;;;;;;;6.20;5.60;;;25.00;99.90;;;;;;4942788;29;20236;-94
2022/07/30 05:48:51;;;;;;;6.40;5.80;;;25.00;99.90;;;;;;4943359;29;20220;-95
2022/07/30 05:51:22;;;;;;;9.73;5.83;;;24.90;99.90;;;;;;4942958;29;20273;-95
2022/07/30 05:53:55;;;;;;;7.37;5.83;;;24.80;99.90;;;;;;4942849;29;20208;-96
2022/07/30 05:56:31;;;;;;;6.17;5.67;;;24.80;99.90;;;;;;4943286;29;20189;-94
2022/07/30 05:59:07;;;;;;;7.03;5.70;;;24.70;99.90;;;;;;5044213;23;20224;-94
2022/07/30 06:01:39;;;;;;;6.90;6.03;;;24.60;99.90;;;;;;5059774;28;20200;-95
2022/07/30 06:04:25;;;;;;;6.40;5.60;;;24.50;99.90;;;;;;5058024;28;20208;-95
2022/07/30 06:06:56;;;;;;;8.47;6.47;;;24.50;99.90;;;;;;5052233;28;20201;-95
2022/07/30 06:09:31;;;;;;;6.93;6.23;;;24.50;99.90;;;;;;5042464;28;20236;-95
2022/07/30 06:12:14;;;;;;;9.10;5.83;;;24.40;99.90;;;;;;5046376;28;20232;-94
2022/07/30 06:17:47;;;;;;;7.37;5.73;;;24.40;99.90;;;;;;5049133;28;20343;-95
2022/07/30 06:20:33;;;;;;;7.97;5.80;;;24.30;99.90;;;;;;5032290;28;20296;-95
2022/07/30 06:23:09;;;;;;;9.00;5.97;;;24.30;99.90;;;;;;5047855;28;20290;-94
2022/07/30 06:25:43;;;;;;;8.40;6.10;;;24.30;99.90;;;;;;5048416;28;20232;-94
2022/07/30 06:28:19;;;;;;;6.77;6.07;;;24.20;99.90;;;;;;5046581;28;20225;-94
2022/07/30 06:31:09;;;;;;;8.07;5.97;;;24.20;99.90;;;;;;5050611;28;20207;-94
2022/07/30 06:33:41;;;;;;;8.33;6.10;;;24.10;99.90;;;;;;5040493;28;20209;-94
2022/07/30 06:36:20;;;;;;;7.03;6.30;;;24.10;99.90;;;;;;5041361;28;20213;-94
2022/07/30 06:38:52;;;;;;;6.30;5.70;;;24.10;99.90;;;;;;5053248;28;20193;-94
2022/07/30 06:41:27;;;;;;;7.10;6.40;;;24.00;99.90;;;;;;5053357;28;20209;-94
2022/07/30 06:44:02;;;;;;;6.50;5.90;;;24.00;99.90;;;;;;5056754;28;20203;-94
2022/07/30 06:46:33;;;;;;;8.90;6.07;;;24.00;99.90;;;;;;5056494;28;20220;-94
2022/07/30 06:49:10;;;;;;;11.13;6.37;;;24.00;99.90;;;;;;5055872;28;20308;-93
2022/07/30 06:51:44;;;;;;;8.00;5.67;;;23.90;99.90;;;;;;5057624;28;20228;-94
2022/07/30 06:54:21;;;;;;;8.67;6.60;;;23.90;99.90;;;;;;5058473;28;20213;-94
2022/07/30 07:05:13;;;;;;;7.03;6.03;;;23.80;99.90;;;;;;5406148;23;20310;-95
2022/07/30 07:07:50;;;;;;;10.00;5.80;;;23.80;99.90;;;;;;5050798;28;20204;-94
2022/07/30 07:10:30;;;;;;;6.83;5.90;;;23.70;99.90;;;;;;5049204;28;20236;-95
2022/07/30 07:13:02;;;;;;;9.50;6.30;;;23.60;99.90;;;;;;5050408;28;20217;-95
2022/07/30 07:15:37;;;;;;;8.60;6.80;;;23.60;99.90;;;;;;5042315;28;20208;-94
2022/07/30 07:18:14;;;;;;;11.70;6.17;;;23.50;99.90;;;;;;5052016;28;20268;-95
2022/07/30 07:21:01;;;;;;;8.27;7.00;;;23.50;99.90;;;;;;5056097;28;20181;-95
2022/07/30 07:23:35;;;;;;;7.87;6.50;;;23.50;99.90;;;;;;5056715;28;20200;-95
2022/07/30 07:26:13;;;;;;;10.10;6.40;;;23.50;99.90;;;;;;5056878;28;20201;-95
2022/07/30 07:28:44;;;;;;;8.43;6.50;;;23.40;99.90;;;;;;5057041;28;20228;-95
2022/07/30 07:31:15;;;;;;;8.13;6.20;;;23.40;99.90;;;;;;5056739;28;20193;-93
2022/07/30 07:34:08;;;;;;;8.20;6.70;;;23.30;99.90;;;;;;5056578;28;20243;-95
2022/07/30 07:36:49;;;;;;;8.17;6.60;;;23.30;99.90;;;;;;5057727;28;20204;-92
2022/07/30 07:39:23;;;;;;;9.20;6.30;;;23.20;99.90;;;;;;5057691;28;20177;-94
2022/07/30 07:42:00;;;;;;;9.10;5.63;;;23.20;99.90;;;;;;5054841;28;20221;-94
2022/07/30 07:44:58;;;;;;;8.00;6.10;;;23.10;99.90;;;;;;5043838;28;20279;-94
2022/07/30 07:47:30;;;;;;;7.20;6.27;;;23.10;99.90;;;;;;5041603;28;20205;-93
2022/07/30 07:50:02;;;;;;;8.63;7.73;;;23.00;99.90;;;;;;5041539;28;20772;-93
2022/07/30 07:52:35;;;;;;;9.13;7.40;;;23.00;99.90;;;;;;5039996;28;20217;-93
2022/07/30 07:55:10;;;;;;;9.80;6.50;;;23.00;99.90;;;;;;5040684;28;20220;-93
2022/07/30 07:57:44;;;;;;;7.30;6.10;;;23.00;99.90;;;;;;5040740;28;20232;-93
2022/07/30 08:00:18;;;;;;;10.53;6.20;;;22.90;99.90;;;;;;5041857;28;20677;-95
2022/07/30 08:03:14;;;;;;;7.07;5.80;;;22.90;99.90;;;;;;5042522;28;20228;-92
2022/07/30 08:05:45;;;;;;;6.37;5.87;;;22.90;99.90;;;;;;5042246;28;20225;-93
2022/07/30 08:08:36;;;;;;;6.87;6.17;;;22.80;99.90;;;;;;5054337;28;20265;-93
2022/07/30 08:11:11;;;;;;;8.27;6.17;;;22.70;99.90;;;;;;5055360;28;20201;-93
2022/07/30 08:22:32;;;;;;;8.70;6.37;;;22.50;99.90;;;;;;5054502;28;20219;-95
2022/07/30 08:28:03;;;;;;;7.83;6.50;;;22.50;99.90;;;;;;5074733;23;20323;-96
2022/07/30 08:30:34;;;;;;;7.10;6.37;;;22.50;99.90;;;;;;5049758;28;20240;-94
2022/07/30 08:33:07;;;;;;;8.53;6.90;;;22.50;99.90;;;;;;5046666;28;20208;-95
2022/07/30 08:35:43;;;;;;;9.10;6.30;;;22.40;99.90;;;;;;5045111;28;20212;-94
2022/07/30 08:38:33;;;;;;;8.87;5.90;;;22.30;99.90;;;;;;5045086;28;20212;-94
2022/07/30 08:41:04;;;;;;;8.50;6.33;;;22.30;99.90;;;;;;5039113;28;20212;-94
2022/07/30 08:43:40;;;;;;;7.30;6.33;;;22.30;99.90;;;;;;5048904;28;20217;-95
2022/07/30 08:46:15;;;;;;;8.90;6.67;;;22.20;99.90;;;;;;5039208;28;20224;-95
2022/07/30 08:48:48;;;;;;;7.77;6.37;;;22.20;99.90;;;;;;5043178;28;20216;-95
2022/07/30 08:51:21;;;;;;;7.17;6.43;;;22.10;99.90;;;;;;5039558;28;20239;-95
2022/07/30 08:53:53;;;;;;;7.80;6.83;;;22.00;99.90;;;;;;5039493;28;20217;-95
2022/07/30 08:56:25;;;;;;;6.83;6.23;;;22.00;99.90;;;;;;5042262;28;20584;-95
2022/07/30 08:59:00;;;;;;;8.23;6.70;;;22.00;99.90;;;;;;5038550;28;20213;-95
2022/07/30 09:01:31;;;;;;;7.57;6.33;;;21.90;99.90;;;;;;5037147;28;20211;-94
2022/07/30 09:04:03;;;;;;;7.87;7.07;;;21.90;99.90;;;;;;5037605;28;20720;-95
2022/07/30 09:06:34;;;;;;;8.37;6.93;;;21.90;99.90;;;;;;5037833;28;20284;-95
2022/07/30 09:09:06;;;;;;;7.37;6.47;;;21.80;99.90;;;;;;5037401;28;20255;-94
2022/07/30 09:11:41;;;;;;;7.93;6.60;;;21.70;99.90;;;;;;5038402;28;20289;-95
2022/07/30 09:14:16;;;;;;;7.70;6.97;;;21.70;99.90;;;;;;5037234;28;20292;-95
2022/07/30 09:16:48;;;;;;;8.13;7.13;;;21.70;99.90;;;;;;5037604;28;20260;-96
2022/07/30 09:19:20;;;;;;;9.40;6.53;;;21.60;99.90;;;;;;5040679;28;20205;-95
2022/07/30 09:21:58;;;;;;;10.23;7.17;;;21.60;99.90;;;;;;5039528;28;20267;-95
2022/07/30 09:24:29;;;;;;;8.67;6.67;;;21.60;99.90;;;;;;5042548;28;20212;-95
2022/07/30 09:27:03;;;;;;;9.10;6.93;;;21.60;99.90;;;;;;5041012;28;20216;-95
2022/07/30 09:29:37;;;;;;;8.87;6.97;;;21.50;99.90;;;;;;5040478;28;20212;-95
2022/07/30 09:32:09;;;;;;;7.43;6.67;;;21.50;99.90;;;;;;5039591;28;20213;-94
2022/07/30 09:34:41;;;;;;;8.80;6.60;;;21.40;99.90;;;;;;5040742;28;20212;-95
2022/07/30 09:37:19;;;;;;;7.03;6.43;;;21.40;99.90;;;;;;5041008;28;20869;-95
2022/07/30 09:39:55;;;;;;;8.40;7.13;;;21.40;99.90;;;;;;5041269;28;20258;-95
2022/07/30 09:42:30;;;;;;;7.30;6.63;;;21.30;99.90;;;;;;5038859;28;20706;-95
2022/07/30 09:45:12;;;;;;;8.27;7.43;;;21.30;99.90;;;;;;5041178;28;20263;-94
2022/07/30 09:47:56;;;;;;;7.47;6.73;;;21.30;99.90;;;;;;5044221;28;20209;-95
2022/07/30 09:50:28;;;;;;;8.57;7.03;;;21.30;99.90;;;;;;5039505;28;20315;-95
2022/07/30 09:53:08;;;;;;;8.27;6.83;;;21.30;99.90;;;;;;5040853;28;20277;-95
2022/07/30 09:55:42;;;;;;;7.53;6.80;;;21.20;99.90;;;;;;5042502;28;20220;-95
2022/07/30 09:58:14;;;;;;;8.70;7.77;;;21.20;99.90;;;;;;5040770;28;20295;-95
2022/07/30 10:01:01;;;;;;;8.20;6.93;;;21.20;99.90;;;;;;5040131;28;20653;-95
2022/07/30 10:03:32;;;;;;;9.80;7.83;;;21.10;99.90;;;;;;5041108;28;20299;-95
2022/07/30 10:06:11;;;;;;;7.93;6.73;;;21.20;99.90;;;;;;5041832;28;20216;-95
2022/07/30 10:08:46;;;;;;;9.07;6.80;;;21.20;99.90;;;;;;5042218;28;20208;-95
2022/07/30 10:11:21;;;;;;;8.43;7.10;;;21.10;99.90;;;;;;5042289;28;20221;-94
2022/07/30 10:13:57;;;;;;;10.47;7.63;;;21.10;99.90;;;;;;5055112;28;20196;-95
2022/07/30 10:16:32;;;;;;;9.77;7.23;;;21.10;99.90;;;;;;5070944;28;20254;-95
2022/07/30 10:19:03;;;;;;;12.50;7.77;;;21.00;99.90;;;;;;5072361;28;20219;-94
2022/07/30 10:21:46;;;;;;;9.23;7.37;;;21.00;99.90;;;;;;5062246;28;20235;-94
2022/07/30 10:24:20;;;;;;;9.40;7.33;;;21.00;99.90;;;;;;5042295;28;20637;-95
2022/07/30 10:26:57;;;;;;;10.23;7.30;;;20.90;99.90;;;;;;5041356;28;20280;-94
2022/07/30 10:29:29;;;;;;;8.13;7.30;;;20.90;99.90;;;;;;5041606;28;20296;-95
2022/07/30 10:32:09;;;;;;;10.13;7.77;;;20.80;99.90;;;;;;5040038;28;20229;-94
2022/07/30 10:37:32;;;;;;;9.83;7.43;;;20.80;99.90;;;;;;5049578;28;20209;-94
2022/07/30 10:40:13;;;;;;;10.40;7.23;;;20.70;99.90;;;;;;5045481;28;20204;-95
2022/07/30 10:43:14;;;;;;;8.73;7.37;;;20.70;99.90;;;;;;5038750;28;20655;-95
2022/07/30 10:45:54;;;;;;;9.43;7.53;;;20.70;99.90;;;;;;5039622;28;20235;-94
2022/07/30 10:48:28;;;;;;;8.20;7.40;;;20.60;99.90;;;;;;5038652;28;20259;-94
2022/07/30 10:50:59;;;;;;;9.53;7.50;;;20.60;99.90;;;;;;5037895;28;20647;-95
2022/07/30 10:53:41;;;;;;;8.53;7.77;;;20.60;99.90;;;;;;5039342;28;20201;-95
2022/07/30 10:56:22;;;;;;;8.43;7.53;;;20.50;99.90;;;;;;5038395;28;20239;-95
2022/07/30 10:59:06;;;;;;;8.73;7.87;;;20.50;99.90;;;;;;5038154;28;20300;-95
2022/07/30 11:02:09;;;;;;;8.47;7.67;;;20.40;99.90;;;;;;5037615;28;20212;-95
2022/07/30 11:04:43;;;;;;;8.43;7.63;;;20.40;99.90;;;;;;5040383;28;20231;-95
2022/07/30 11:07:32;;;;;;;8.40;7.70;;;20.40;99.90;;;;;;5048143;28;20232;-94
2022/07/30 11:10:05;;;;;;;9.07;7.83;;;20.40;99.90;;;;;;5053329;28;20216;-94
2022/07/30 11:12:57;;;;;;;8.53;7.77;;;20.40;99.90;;;;;;5043640;28;20680;-95
2022/07/30 11:15:55;;;;;;;11.80;8.13;;;20.40;99.90;;;;;;5044796;28;20216;-95
2022/07/30 11:18:31;;;;;;;8.53;7.60;;;20.40;99.90;;;;;;5057954;28;20288;-93
2022/07/30 11:21:22;;;;;;;8.20;7.50;;;20.20;99.90;;;;;;5059322;28;20227;-95
2022/07/30 11:23:53;;;;;;;8.87;7.97;;;20.20;99.90;;;;;;5041627;28;20235;-95
2022/07/30 11:26:53;;;;;;;8.67;7.77;;;20.20;99.90;;;;;;5038057;28;20220;-95
2022/07/30 11:29:42;;;;;;;8.37;7.23;;;20.30;99.90;;;;;;5038776;28;20656;-95
2022/07/30 11:32:31;;;;;;;8.60;7.80;;;20.20;99.90;;;;;;5037506;28;20247;-95
2022/07/30 11:35:18;;;;;;;10.30;8.13;;;20.20;99.90;;;;;;5037457;28;20606;-93
2022/07/30 11:41:54;;;;;;;9.00;8.10;;;20.10;99.90;;;;;;5051021;28;20212;-93
2022/07/30 11:48:03;;;;;;;8.50;7.60;;;20.10;99.90;;;;;;5050263;28;20235;-93
2022/07/30 11:50:36;;;;;;;8.30;7.53;;;20.10;99.90;;;;;;5046278;28;20290;-93
2022/07/30 11:53:09;;;;;;;9.07;8.27;;;20.10;99.90;;;;;;5038648;28;20213;-94
2022/07/30 11:55:42;;;;;;;9.93;7.97;;;20.00;99.90;;;;;;5037539;28;20204;-94
2022/07/30 11:58:27;;;;;;;9.03;7.63;;;20.10;99.90;;;;;;5037072;28;20213;-94
2022/07/30 12:01:03;;;;;;;9.40;7.93;;;20.00;99.90;;;;;;5036249;28;20212;-94
2022/07/30 12:03:42;;;;;;;9.27;8.10;;;20.00;99.90;;;;;;5037306;28;20213;-94
2022/07/30 12:06:16;;;;;;;9.10;8.27;;;20.00;99.90;;;;;;5037182;28;20225;-94
2022/07/30 12:15:06;;;;;;;8.60;7.70;;;20.00;99.90;;;;;;5038530;28;20216;-94
2022/07/30 12:17:49;;;;;;;10.33;8.50;;;19.80;99.90;;;;;;5057234;28;20213;-93
2022/07/30 12:20:44;;;;;;;9.40;8.30;;;19.80;99.90;;;;;;5058333;28;20207;-93
2022/07/30 12:23:16;;;;;;;9.47;8.30;;;19.80;99.90;;;;;;5056802;28;20222;-94
2022/07/30 12:25:51;;;;;;;15.10;8.83;;;19.80;99.90;;;;;;5056796;28;20282;-93
2022/07/30 12:28:24;;;;;;;9.47;7.93;;;19.70;99.90;;;;;;5057614;28;20600;-93
2022/07/30 12:30:56;;;;;;;9.20;7.80;;;19.70;99.90;;;;;;5055872;28;20205;-93
2022/07/30 12:33:30;;;;;;;8.47;7.67;;;19.70;99.90;;;;;;5057208;28;20211;-94
2022/07/30 12:36:02;;;;;;;8.80;7.90;;;19.70;99.90;;;;;;5058796;28;20223;-93
2022/07/30 12:38:47;;;;;;;8.93;8.03;;;19.60;99.90;;;;;;5058847;28;20208;-93
2022/07/30 12:41:20;;;;;;;8.97;8.23;;;19.60;99.90;;;;;;5056843;28;20663;-94
2022/07/30 12:43:53;;;;;;;9.20;8.17;;;19.60;99.90;;;;;;5055988;28;20588;-94
2022/07/30 12:46:26;;;;;;;9.47;8.60;;;19.60;99.90;;;;;;5036796;28;20213;-94
2022/07/30 12:49:01;;;;;;;8.53;7.70;;;19.60;99.90;;;;;;5036767;28;20255;-94
2022/07/30 12:51:55;;;;;;;10.87;8.10;;;19.60;99.90;;;;;;5036216;28;20283;-94
2022/07/30 12:54:30;;;;;;;12.87;8.27;;;19.60;99.90;;;;;;5037059;28;20241;-93
2022/07/30 12:57:02;;;;;;;9.37;8.07;;;19.60;99.90;;;;;;5040855;28;20204;-94
2022/07/30 12:59:37;;;;;;;10.20;9.00;;;19.60;99.90;;;;;;5040418;28;20823;-94
2022/07/30 13:02:08;;;;;;;10.60;8.80;;;19.50;99.90;;;;;;5039603;28;20213;-93
2022/07/30 13:04:55;;;;;;;9.67;8.67;;;19.40;99.90;;;;;;5039949;28;20231;-93
2022/07/30 13:14:07;;;;;;;9.10;8.20;;;19.30;99.90;;;;;;5042157;28;20204;-94
2022/07/30 13:16:41;;;;;;;9.90;9.00;;;19.30;99.90;;;;;;5040045;28;20208;-94
2022/07/30 13:19:14;;;;;;;10.33;8.37;;;19.40;99.90;;;;;;5040725;28;20201;-94
2022/07/30 13:21:48;;;;;;;9.57;8.57;;;19.30;99.90;;;;;;5039994;28;20342;-93
2022/07/30 13:24:19;;;;;;;11.03;8.77;;;19.40;99.90;;;;;;5040176;28;20629;-94
2022/07/30 13:26:50;;;;;;;10.73;8.37;;;19.50;99.90;;;;;;5042630;28;20239;-93
2022/07/30 13:29:22;;;;;;;8.70;7.90;;;19.50;99.90;;;;;;5041243;28;20236;-93
2022/07/30 13:31:54;;;;;;;9.43;8.63;;;19.50;99.90;;;;;;5038731;28;20221;-94
2022/07/30 13:34:25;;;;;;;8.80;8.10;;;19.50;99.90;;;;;;5041910;28;20236;-94
2022/07/30 13:36:59;;;;;;;8.67;7.97;;;19.50;99.90;;;;;;5039929;28;20201;-94
2022/07/30 13:39:31;;;;;;;9.60;8.47;;;19.50;99.90;;;;;;5040006;28;20212;-94
2022/07/30 13:42:03;;;;;;;9.60;8.70;;;19.60;99.90;;;;;;5039051;28;20209;-94
2022/07/30 13:44:38;;;;;;;9.60;8.70;;;19.60;99.90;;;;;;5040016;28;20267;-94
2022/07/30 13:47:10;;;;;;;9.27;8.47;;;19.60;99.90;;;;;;5040822;28;20254;-94
2022/07/30 13:49:45;;;;;;;9.57;8.67;;;19.60;99.90;;;;;;5039783;28;20212;-94
2022/07/30 13:52:24;;;;;;;9.10;8.30;;;19.70;99.90;;;;;;5052076;28;20228;-94
2022/07/30 13:54:56;;;;;;;9.30;8.50;;;19.70;99.90;;;;;;5059073;28;20304;-95
2022/07/30 13:57:27;;;;;;;9.87;8.87;;;19.80;99.90;;;;;;5059226;28;20205;-94
2022/07/30 13:59:59;;;;;;;10.70;9.10;;;19.80;99.90;;;;;;5058681;28;20227;-93
2022/07/30 14:02:32;;;;;;;8.80;8.00;;;19.80;99.90;;;;;;5054654;28;20269;-94
2022/07/30 14:05:05;;;;;;;9.50;8.60;;;19.80;99.90;;;;;;5040088;28;20212;-93
2022/07/30 14:07:42;;;;;;;9.07;8.27;;;19.90;99.90;;;;;;5038775;28;20224;-94
2022/07/30 14:10:14;;;;;;;8.90;8.20;;;20.00;99.90;;;;;;5039843;28;20224;-95
2022/07/30 14:12:46;;;;;;;13.47;8.63;;;20.00;99.90;;;;;;5039613;28;20229;-94
2022/07/30 14:15:17;;;;;;;11.13;8.40;;;20.10;99.90;;;;;;5039579;28;20215;-94
2022/07/30 14:17:50;;;;;;;10.33;8.70;;;20.10;99.90;;;;;;5038543;28;20209;-94
2022/07/30 14:20:26;;;;;;;9.67;8.80;;;20.20;99.90;;;;;;5038736;28;20212;-94
2022/07/30 14:23:00;;;;;;;8.97;8.17;;;20.30;99.90;;;;;;5039873;28;20241;-94
2022/07/30 14:25:42;;;;;;;9.67;8.77;;;20.30;99.90;;;;;;5045615;28;20217;-94
2022/07/30 14:28:13;;;;;;;9.83;8.90;;;20.40;99.90;;;;;;5039026;28;20294;-94
2022/07/30 14:30:45;;;;;;;9.10;8.30;;;20.40;99.90;;;;;;5039046;28;20628;-94
2022/07/30 14:33:17;;;;;;;12.10;8.53;;;20.50;99.90;;;;;;5039048;28;20236;-92
2022/07/30 14:35:51;;;;;;;10.10;8.80;;;20.60;99.90;;;;;;5039174;28;20551;-93
2022/07/30 14:38:29;;;;;;;9.27;8.37;;;20.60;99.90;;;;;;5039393;28;20295;-93
2022/07/30 14:41:01;;;;;;;9.70;8.80;;;20.70;99.90;;;;;;5038641;28;20215;-93
2022/07/30 14:46:20;;;;;;;12.20;10.10;;;20.80;99.90;;;;;;5050027;28;20269;-93
2022/07/30 14:48:52;;;;;;;10.17;9.10;;;21.00;99.90;;;;;;5047757;28;20220;-94
2022/07/30 14:54:51;;;;;;;10.57;9.47;;;21.30;99.90;;;;;;5030447;28;20237;-94
2022/07/30 14:57:26;;;;;;;15.47;10.00;;;21.50;99.90;;;;;;5022655;28;20232;-94
2022/07/30 14:59:57;;;;;;;12.43;8.87;;;22.00;99.90;;;;;;5019946;28;20217;-94
2022/07/30 15:02:29;;;;;;;10.37;9.37;;;22.60;99.90;;;;;;5018989;28;20662;-94
2022/07/30 15:05:04;;;;;;;9.70;8.70;;;23.30;99.90;;;;;;5027156;28;20221;-94
2022/07/30 15:07:36;;;;;;;9.20;8.27;;;23.70;99.90;;;;;;5021250;28;20205;-94
2022/07/30 15:10:11;;;;;;;10.50;8.17;;;24.10;99.90;;;;;;5021284;28;20209;-94
2022/07/30 15:13:15;;;;;;;10.67;8.07;;;24.40;99.90;;;;;;5032249;28;20221;-94
2022/07/30 15:15:52;;;;;;;8.80;7.90;;;24.70;99.90;;;;;;5034398;28;20272;-94
2022/07/30 15:18:24;;;;;;;8.90;8.00;;;24.90;99.90;;;;;;5039997;28;20274;-94
2022/07/30 15:20:56;;;;;;;9.77;7.33;;;24.80;99.90;;;;;;5053976;28;20272;-95
2022/07/30 15:23:29;;;;;;;8.33;7.63;;;24.90;99.90;;;;;;5056881;28;20204;-95
2022/07/30 15:26:02;;;;;;;10.17;8.60;;;24.80;99.90;;;;;;5056712;28;20318;-94
2022/07/30 15:32:27;;;;;;;13.07;9.27;;;24.50;99.90;;;;;;5721268;23;20243;-94
2022/07/30 15:35:00;;;;;;;11.43;9.30;;;24.40;99.90;;;;;;5040636;28;20209;-94
2022/07/30 15:37:34;;;;;;;9.90;8.90;;;24.30;99.90;;;;;;5039681;28;20228;-94
2022/07/30 15:40:06;;;;;;;9.60;8.47;;;24.40;99.90;;;;;;5039528;28;20209;-94
2022/07/30 15:42:39;;;;;;;9.83;8.80;;;24.40;99.90;;;;;;5039629;28;20584;-94
2022/07/30 15:45:12;;;;;;;10.13;9.13;;;24.30;99.90;;;;;;5038150;28;20205;-94
2022/07/30 15:47:50;;;;;;;9.40;8.50;;;24.30;99.90;;;;;;5037844;28;20212;-94
2022/07/30 15:50:21;;;;;;;10.80;8.63;;;24.30;99.90;;;;;;5036903;28;20653;-94
2022/07/30 15:52:55;;;;;;;10.00;9.10;;;24.40;99.90;;;;;;5037395;28;20241;-94
2022/07/30 15:55:27;;;;;;;9.90;9.00;;;24.40;99.90;;;;;;5182839;23;20243;-94
2022/07/30 15:58:26;;;;;;;9.90;8.97;;;24.50;99.90;;;;;;5050238;28;20272;-94
2022/07/30 16:01:01;;;;;;;9.77;8.97;;;24.50;99.90;;;;;;5049044;28;20236;-94
2022/07/30 16:03:36;;;;;;;9.83;9.00;;;24.50;99.90;;;;;;5042661;28;20279;-95
2022/07/30 16:06:07;;;;;;;10.40;9.40;;;24.50;99.90;;;;;;5049560;28;20213;-94
2022/07/30 16:08:39;;;;;;;10.70;9.57;;;24.50;99.90;;;;;;5050362;28;20215;-94
2022/07/30 16:11:22;;;;;;;10.30;9.30;;;24.60;99.90;;;;;;5051395;28;20213;-94
2022/07/30 16:14:02;;;;;;;12.30;9.67;;;24.60;99.90;;;;;;5053915;28;20235;-94
2022/07/30 16:16:34;;;;;;;10.83;9.40;;;24.70;99.90;;;;;;5046350;28;20725;-95
2022/07/30 16:19:11;;;;;;;10.90;9.27;;;24.70;99.90;;;;;;5037675;28;20575;-95
2022/07/30 16:21:51;;;;;;;10.50;9.35;;;24.70;99.90;;;;;;4988590;28;10001385;-94
2022/07/30 16:24:23;;;;;;;10.70;9.77;;;24.70;99.90;;;;;;5040123;28;20427;-94
2022/07/30 16:26:55;;;;;;;10.77;9.83;;;24.80;99.90;;;;;;5039922;28;20231;-94
2022/07/30 16:29:28;;;;;;;12.10;10.20;;;24.80;99.90;;;;;;5038379;28;20217;-95
2022/07/30 16:32:00;;;;;;;11.13;10.10;;;24.70;99.90;;;;;;5035813;28;20205;-95
2022/07/30 16:34:36;;;;;;;10.67;9.77;;;24.70;99.90;;;;;;5038476;28;20236;-94
2022/07/30 16:37:08;;;;;;;10.57;9.47;;;24.70;99.90;;;;;;5038823;28;20641;-94
2022/07/30 16:39:40;;;;;;;11.27;10.27;;;24.70;99.90;;;;;;5038670;28;20224;-94
2022/07/30 16:42:15;;;;;;;10.73;9.70;;;24.70;99.90;;;;;;5037966;28;20204;-94
2022/07/30 16:44:48;;;;;;;11.40;10.30;;;24.80;99.90;;;;;;5041188;28;20231;-94